createdAt,value
2022-08-25T00:02:03.134Z,15.68
2022-08-25T00:04:31.525Z,15.73
2022-08-25T00:07:03.120Z,15.66
2022-08-25T00:09:31.641Z,15.77
2022-08-25T00:11:59.080Z,15.78
2022-08-25T00:14:34.388Z,15.77
2022-08-25T00:17:02.064Z,16.06
2022-08-25T00:19:33.408Z,16.63
2022-08-25T00:22:01.548Z,16.67
2022-08-25T00:24:28.708Z,16.28
2022-08-25T00:26:57.505Z,16.40
2022-08-25T00:29:26.488Z,16.22
2022-08-25T00:31:54.009Z,15.87
2022-08-25T00:34:26.401Z,16.30
2022-08-25T00:36:53.934Z,16.16
2022-08-25T00:39:23.160Z,16.52
2022-08-25T00:41:52.171Z,16.71
2022-08-25T00:44:19.381Z,16.61
2022-08-25T00:46:52.607Z,16.53
2022-08-25T00:49:24.820Z,16.35
2022-08-25T00:51:59.191Z,16.28
2022-08-25T00:54:31.516Z,16.37
2022-08-25T00:57:00.803Z,16.52
2022-08-25T00:59:28.295Z,16.57
2022-08-25T01:01:56.302Z,16.48
2022-08-25T01:04:24.047Z,16.47
2022-08-25T01:06:51.297Z,15.84
2022-08-25T01:09:20.013Z,16.09
2022-08-25T01:11:47.620Z,16.43
2022-08-25T01:14:18.884Z,16.66
2022-08-25T01:16:46.433Z,16.62
2022-08-25T01:19:17.836Z,16.61
2022-08-25T01:21:53.009Z,16.74
2022-08-25T01:24:31.491Z,16.74
2022-08-25T01:26:58.779Z,16.84
2022-08-25T01:29:25.765Z,16.81
2022-08-25T01:32:00.270Z,16.82
2022-08-25T01:34:29.904Z,16.64
2022-08-25T01:36:59.092Z,16.59
2022-08-25T01:39:27.640Z,16.51
2022-08-25T01:42:06.187Z,16.33
2022-08-25T01:44:35.962Z,16.15
2022-08-25T01:47:04.101Z,16.05
2022-08-25T01:49:30.873Z,15.91
2022-08-25T01:52:05.493Z,16.18
2022-08-25T01:54:32.606Z,15.96
2022-08-25T01:56:59.608Z,15.82
2022-08-25T01:59:27.484Z,15.81
2022-08-25T02:01:57.465Z,15.80
2022-08-25T02:04:29.566Z,15.70
2022-08-25T02:06:56.352Z,15.86
2022-08-25T02:09:23.273Z,15.49
2022-08-25T02:11:50.956Z,15.60
2022-08-25T02:14:19.957Z,15.65
2022-08-25T02:16:50.977Z,15.44
2022-08-25T02:19:19.444Z,15.55
2022-08-25T02:21:46.856Z,15.60
2022-08-25T02:24:14.198Z,15.41
2022-08-25T02:26:41.420Z,15.46
2022-08-25T02:29:08.921Z,15.67
2022-08-25T02:31:36.540Z,15.75
2022-08-25T02:34:03.909Z,15.81
2022-08-25T02:36:32.220Z,15.71
2022-08-25T02:38:59.503Z,15.65
2022-08-25T02:41:30.909Z,15.75
2022-08-25T02:43:58.133Z,15.78
2022-08-25T02:46:25.183Z,15.76
2022-08-25T02:48:53.415Z,15.96
2022-08-25T02:51:22.570Z,15.92
2022-08-25T02:53:50.008Z,16.13
2022-08-25T02:56:18.749Z,16.45
2022-08-25T02:58:46.425Z,16.60
2022-08-25T03:01:13.871Z,16.66
2022-08-25T03:03:42.189Z,16.49
2022-08-25T03:06:12.080Z,16.41
2022-08-25T03:08:39.779Z,16.19
2022-08-25T03:11:06.981Z,15.97
2022-08-25T03:13:34.320Z,16.14
2022-08-25T03:16:03.006Z,16.10
2022-08-25T03:18:30.525Z,16.16
2022-08-25T03:20:57.805Z,16.04
2022-08-25T03:23:24.811Z,15.90
2022-08-25T03:26:12.469Z,15.66
2022-08-25T03:28:39.204Z,15.67
2022-08-25T03:31:06.266Z,15.62
2022-08-25T03:33:33.419Z,15.53
2022-08-25T03:36:00.426Z,15.28
2022-08-25T03:38:28.008Z,15.44
2022-08-25T03:40:54.801Z,15.16
2022-08-25T03:43:22.421Z,15.41
2022-08-25T03:45:49.297Z,15.35
2022-08-25T03:48:17.793Z,15.33
2022-08-25T03:50:50.610Z,15.27
2022-08-25T03:53:19.814Z,15.03
2022-08-25T03:55:46.914Z,15.16
2022-08-25T03:58:14.248Z,15.11
2022-08-25T04:00:41.004Z,15.23
2022-08-25T04:03:07.815Z,15.10
2022-08-25T04:05:35.425Z,15.27
2022-08-25T04:08:02.355Z,15.23
2022-08-25T04:10:29.900Z,15.45
2022-08-25T04:12:58.419Z,15.56
2022-08-25T04:15:30.138Z,15.71
2022-08-25T04:17:59.001Z,15.45
2022-08-25T04:20:25.942Z,15.34
2022-08-25T04:22:52.795Z,15.36
2022-08-25T04:25:19.716Z,15.14
2022-08-25T04:27:46.471Z,15.44
2022-08-25T04:30:13.808Z,15.41
2022-08-25T04:32:40.631Z,15.83
2022-08-25T04:35:07.803Z,16.20
2022-08-25T04:37:34.928Z,16.09
2022-08-25T04:40:02.198Z,15.86
2022-08-25T04:42:29.008Z,15.81
2022-08-25T04:47:46.237Z,16.01
2022-08-25T04:50:13.071Z,16.10
2022-08-25T04:52:39.845Z,16.07
2022-08-25T04:55:07.504Z,16.18
2022-08-25T04:57:34.505Z,16.14
2022-08-25T05:00:02.357Z,16.30
2022-08-25T05:02:29.157Z,16.36
2022-08-25T05:04:57.282Z,16.51
2022-08-25T05:07:24.108Z,16.83
2022-08-25T05:09:53.240Z,16.93
2022-08-25T05:12:20.855Z,17.02
2022-08-25T05:14:48.512Z,17.30
2022-08-25T05:17:18.021Z,17.19
2022-08-25T05:19:44.919Z,17.44
2022-08-25T05:22:11.755Z,17.63
2022-08-25T05:24:38.625Z,17.38
2022-08-25T05:27:05.591Z,18.02
2022-08-25T05:29:32.371Z,18.23
2022-08-25T05:31:59.346Z,18.59
2022-08-25T05:34:26.152Z,18.83
2022-08-25T05:36:53.094Z,19.03
2022-08-25T05:39:20.029Z,19.18
2022-08-25T05:41:46.853Z,19.29
2022-08-25T05:44:15.948Z,19.52
2022-08-25T05:46:44.932Z,19.64
2022-08-25T05:49:11.737Z,19.85
2022-08-25T05:51:38.580Z,19.81
2022-08-25T05:54:05.900Z,20.16
2022-08-25T05:56:32.639Z,20.50
2022-08-25T05:59:00.551Z,20.67
2022-08-25T06:01:48.017Z,20.98
2022-08-25T06:04:17.947Z,20.89
2022-08-25T06:06:44.765Z,21.22
2022-08-25T06:09:15.380Z,21.29
2022-08-25T06:11:42.993Z,21.50
2022-08-25T06:14:10.695Z,21.62
2022-08-25T06:16:39.220Z,21.69
2022-08-25T06:19:07.535Z,21.79
2022-08-25T06:21:34.272Z,21.91
2022-08-25T06:24:01.826Z,21.81
2022-08-25T06:26:28.581Z,21.87
2022-08-25T06:28:55.401Z,21.91
2022-08-25T06:31:22.696Z,22.05
2022-08-25T06:33:50.721Z,22.37
2022-08-25T06:36:17.827Z,22.42
2022-08-25T06:38:44.881Z,22.63
2022-08-25T06:41:12.785Z,22.81
2022-08-25T06:43:47.421Z,22.82
2022-08-25T06:46:19.634Z,23.04
2022-08-25T06:48:46.453Z,23.08
2022-08-25T06:51:15.571Z,23.19
2022-08-25T06:53:44.086Z,23.39
2022-08-25T06:56:11.872Z,23.53
2022-08-25T06:58:39.340Z,23.63
2022-08-25T07:01:15.881Z,23.79
2022-08-25T07:03:47.545Z,23.87
2022-08-25T07:06:18.310Z,23.96
2022-08-25T07:08:46.552Z,23.68
2022-08-25T07:11:16.187Z,23.87
2022-08-25T07:13:44.242Z,24.12
2022-08-25T07:16:15.595Z,24.16
2022-08-25T07:18:44.161Z,24.28
2022-08-25T07:21:12.450Z,24.25
2022-08-25T07:23:40.930Z,24.38
2022-08-25T07:26:27.090Z,24.30
2022-08-25T07:28:58.897Z,24.60
2022-08-25T07:31:27.118Z,24.59
2022-08-25T07:34:15.056Z,24.73
2022-08-25T07:36:43.687Z,24.91
2022-08-25T07:39:10.642Z,25.03
2022-08-25T07:41:39.989Z,25.00
2022-08-25T07:44:08.605Z,25.07
2022-08-25T07:46:35.423Z,25.10
2022-08-25T07:49:02.345Z,25.13
2022-08-25T07:51:29.166Z,25.22
2022-08-25T07:53:56.054Z,25.15
2022-08-25T07:56:23.638Z,25.18
2022-08-25T07:58:50.748Z,25.40
2022-08-25T08:01:19.886Z,25.59
2022-08-25T08:03:50.850Z,25.39
2022-08-25T08:06:21.630Z,25.45
2022-08-25T08:08:50.424Z,25.48
2022-08-25T08:11:23.965Z,25.67
2022-08-25T08:13:51.935Z,25.65
2022-08-25T08:16:20.452Z,25.51
2022-08-25T08:18:48.166Z,25.98
2022-08-25T08:21:22.651Z,26.17
2022-08-25T08:23:50.584Z,26.44
2022-08-25T08:26:18.202Z,26.56
2022-08-25T08:28:51.891Z,26.23
2022-08-25T08:31:24.744Z,26.52
2022-08-25T08:33:55.017Z,26.59
2022-08-25T08:36:25.473Z,26.64
2022-08-25T08:38:52.949Z,26.77
2022-08-25T08:45:11.512Z,26.82
2022-08-25T08:47:52.987Z,26.84
2022-08-25T08:50:50.759Z,27.09
2022-08-25T08:53:27.617Z,27.11
2022-08-25T08:56:06.941Z,27.24
2022-08-25T08:59:06.101Z,26.97
2022-08-25T09:01:54.106Z,27.06
2022-08-25T09:04:37.629Z,27.36
2022-08-25T09:07:11.739Z,27.34
2022-08-25T09:09:42.159Z,26.94
2022-08-25T09:12:41.365Z,27.13
2022-08-25T09:16:00.057Z,27.57
2022-08-25T09:18:51.189Z,27.95
2022-08-25T09:21:36.032Z,27.66
2022-08-25T09:24:30.702Z,27.85
2022-08-25T09:27:15.068Z,27.84
2022-08-25T09:30:01.771Z,27.81
2022-08-25T09:32:36.117Z,27.59
2022-08-25T09:35:04.912Z,27.81
2022-08-25T09:37:31.713Z,28.30
2022-08-25T09:39:59.242Z,28.38
2022-08-25T09:42:48.203Z,28.50
2022-08-25T09:45:17.387Z,28.52
2022-08-25T09:47:46.058Z,28.02
2022-08-25T09:50:20.201Z,27.47
2022-08-25T09:52:46.985Z,27.80
2022-08-25T09:55:29.607Z,27.80
2022-08-25T09:57:59.631Z,28.17
2022-08-25T10:00:30.621Z,28.67
2022-08-25T10:03:22.852Z,29.20
2022-08-25T10:06:04.256Z,29.31
2022-08-25T10:08:55.651Z,29.32
2022-08-25T10:11:33.405Z,29.55
2022-08-25T10:14:26.396Z,29.55
2022-08-25T10:16:54.625Z,29.36
2022-08-25T10:19:30.535Z,29.18
2022-08-25T10:22:07.916Z,29.00
2022-08-25T10:24:35.226Z,29.02
2022-08-25T10:27:17.369Z,29.20
2022-08-25T10:30:14.968Z,29.49
2022-08-25T10:33:15.611Z,29.97
2022-08-25T10:36:06.700Z,30.28
2022-08-25T10:38:36.236Z,29.70
2022-08-25T10:41:44.612Z,29.63
2022-08-25T10:44:39.028Z,29.65
2022-08-25T10:47:29.938Z,30.12
2022-08-25T10:50:05.429Z,30.02
2022-08-25T10:53:05.295Z,29.57
2022-08-25T10:55:47.322Z,30.20
2022-08-25T10:58:35.392Z,30.42
2022-08-25T11:01:19.223Z,30.68
2022-08-25T11:04:07.496Z,30.72
2022-08-25T11:06:56.651Z,31.22
2022-08-25T11:09:33.306Z,31.42
2022-08-25T11:12:10.021Z,31.31
2022-08-25T11:14:43.050Z,31.00
2022-08-25T11:17:29.583Z,30.38
2022-08-25T11:20:03.587Z,30.58
2022-08-25T11:22:40.621Z,30.62
2022-08-25T11:25:12.828Z,30.41
2022-08-25T11:28:20.671Z,30.25
2022-08-25T11:30:51.284Z,30.37
2022-08-25T11:33:19.718Z,30.62
2022-08-25T11:35:57.098Z,30.63
2022-08-25T11:38:36.091Z,30.35
2022-08-25T11:41:11.425Z,30.82
2022-08-25T11:43:55.056Z,31.10
2022-08-25T11:46:40.164Z,31.80
2022-08-25T11:49:27.680Z,32.30
2022-08-25T11:51:55.682Z,31.27
2022-08-25T11:54:35.668Z,31.99
2022-08-25T11:57:06.558Z,30.69
2022-08-25T11:59:54.330Z,31.07
2022-08-25T12:02:39.148Z,30.85
2022-08-25T12:05:11.250Z,30.68
2022-08-25T12:08:24.275Z,30.59
2022-08-25T12:10:55.337Z,30.27
2022-08-25T12:13:38.616Z,29.98
2022-08-25T12:16:05.976Z,29.86
2022-08-25T12:18:32.696Z,30.45
2022-08-25T12:21:00.174Z,30.73
2022-08-25T12:23:50.407Z,31.42
2022-08-25T12:26:31.827Z,32.07
2022-08-25T12:29:26.616Z,31.93
2022-08-25T12:32:03.174Z,32.36
2022-08-25T12:34:40.887Z,32.42
2022-08-25T12:37:25.317Z,32.22
2022-08-25T12:39:54.535Z,32.19
2022-08-25T12:42:45.060Z,32.59
2022-08-25T12:45:24.143Z,32.21
2022-08-25T12:47:53.092Z,32.32
2022-08-25T12:50:50.395Z,32.81
2022-08-25T12:53:34.102Z,32.26
2022-08-25T12:56:06.182Z,32.13
2022-08-25T12:58:59.869Z,32.21
2022-08-25T13:01:55.872Z,31.64
2022-08-25T13:04:46.313Z,31.55
2022-08-25T13:07:34.795Z,30.75
2022-08-25T13:10:24.312Z,30.85
2022-08-25T13:13:16.912Z,30.52
2022-08-25T13:15:57.921Z,30.70
2022-08-25T13:18:31.591Z,30.18
2022-08-25T13:21:27.738Z,30.52
2022-08-25T13:26:48.962Z,30.86
2022-08-25T13:29:37.413Z,31.27
2022-08-25T13:32:14.383Z,31.57
2022-08-25T13:34:43.689Z,31.59
2022-08-25T13:37:30.409Z,31.04
2022-08-25T13:40:32.736Z,30.87
2022-08-25T13:43:07.974Z,30.27
2022-08-25T13:45:42.983Z,30.08
2022-08-25T13:48:21.147Z,29.97
2022-08-25T13:50:52.085Z,30.29
2022-08-25T13:53:26.346Z,30.62
2022-08-25T13:55:58.084Z,30.88
2022-08-25T13:58:38.709Z,30.91
2022-08-25T14:01:46.929Z,31.43
2022-08-25T14:04:51.464Z,31.47
2022-08-25T14:07:22.739Z,31.45
2022-08-25T14:09:54.346Z,31.53
2022-08-25T14:12:31.339Z,31.69
2022-08-25T14:15:03.636Z,31.73
2022-08-25T14:17:38.343Z,31.66
2022-08-25T14:20:28.974Z,31.73
2022-08-25T14:22:59.288Z,31.70
2022-08-25T14:25:28.493Z,31.71
2022-08-25T14:28:08.240Z,31.74
2022-08-25T14:30:39.589Z,31.43
2022-08-25T14:33:10.849Z,31.52
2022-08-25T14:35:38.166Z,31.43
2022-08-25T14:38:12.447Z,31.59
2022-08-25T14:40:39.864Z,31.24
2022-08-25T14:43:09.613Z,31.70
2022-08-25T14:45:40.108Z,32.08
2022-08-25T14:48:14.457Z,31.96
2022-08-25T14:50:42.262Z,31.45
2022-08-25T14:53:11.691Z,31.87
2022-08-25T14:55:39.829Z,31.74
2022-08-25T14:58:09.637Z,31.84
2022-08-25T15:00:44.607Z,31.59
2022-08-25T15:03:21.719Z,31.48
2022-08-25T15:05:48.460Z,30.88
2022-08-25T15:08:35.543Z,30.84
2022-08-25T15:11:02.275Z,30.62
2022-08-25T15:13:36.740Z,30.58
2022-08-25T15:16:04.483Z,30.28
2022-08-25T15:18:31.316Z,30.13
2022-08-25T15:20:58.328Z,29.99
2022-08-25T15:23:25.139Z,30.43
2022-08-25T15:25:56.036Z,30.36
2022-08-25T15:28:22.926Z,30.48
2022-08-25T15:30:50.787Z,30.44
2022-08-25T15:33:18.007Z,30.54
2022-08-25T15:35:45.637Z,30.75
2022-08-25T15:38:12.629Z,30.68
2022-08-25T15:40:39.535Z,30.79
2022-08-25T15:43:07.034Z,31.05
2022-08-25T15:45:36.208Z,30.92
2022-08-25T15:48:03.456Z,31.00
2022-08-25T15:50:30.448Z,31.01
2022-08-25T15:52:57.920Z,30.95
2022-08-25T15:55:24.917Z,30.64
2022-08-25T15:57:51.957Z,30.66
2022-08-25T16:00:19.245Z,30.52
2022-08-25T16:02:48.466Z,30.26
2022-08-25T16:05:16.200Z,30.32
2022-08-25T16:07:51.530Z,30.29
2022-08-25T16:10:18.858Z,30.03
2022-08-25T16:12:46.152Z,30.05
2022-08-25T16:15:13.184Z,30.04
2022-08-25T16:17:40.510Z,29.87
2022-08-25T16:20:08.264Z,29.65
2022-08-25T16:22:40.432Z,29.89
2022-08-25T16:25:07.767Z,29.89
2022-08-25T16:27:38.937Z,29.80
2022-08-25T16:30:08.004Z,29.76
2022-08-25T16:32:35.088Z,29.70
2022-08-25T16:35:04.215Z,29.66
2022-08-25T16:37:33.826Z,29.48
2022-08-25T16:40:01.481Z,29.49
2022-08-25T16:42:28.936Z,29.45
2022-08-25T16:44:55.759Z,29.17
2022-08-25T16:47:26.870Z,28.97
2022-08-25T16:49:54.329Z,29.13
2022-08-25T16:52:40.674Z,29.05
2022-08-25T16:55:13.802Z,28.93
2022-08-25T16:57:45.361Z,28.80
2022-08-25T17:00:18.702Z,28.38
2022-08-25T17:02:46.086Z,28.44
2022-08-25T17:05:14.515Z,28.41
2022-08-25T17:07:41.790Z,28.32
2022-08-25T17:10:12.894Z,28.28
2022-08-25T17:12:40.417Z,28.20
2022-08-25T17:15:07.696Z,27.98
2022-08-25T17:17:37.251Z,27.84
2022-08-25T17:20:05.003Z,27.56
2022-08-25T17:22:31.884Z,27.62
2022-08-25T17:25:00.697Z,27.61
2022-08-25T17:27:28.388Z,27.58
2022-08-25T17:29:55.950Z,27.50
2022-08-25T17:32:30.174Z,27.30
2022-08-25T17:34:58.116Z,27.33
2022-08-25T17:37:25.319Z,27.17
2022-08-25T17:40:02.579Z,27.19
2022-08-25T17:42:30.137Z,26.97
2022-08-25T17:44:57.562Z,26.97
2022-08-25T17:47:24.269Z,26.90
2022-08-25T17:49:51.020Z,26.83
2022-08-25T17:52:17.868Z,26.83
2022-08-25T17:54:48.671Z,26.76
2022-08-25T17:57:16.239Z,26.75
2022-08-25T17:59:43.045Z,26.58
2022-08-25T18:02:10.095Z,26.60
2022-08-25T18:04:38.098Z,26.50
2022-08-25T18:07:05.496Z,26.41
2022-08-25T18:09:32.301Z,26.39
2022-08-25T18:11:59.209Z,26.30
2022-08-25T18:14:25.980Z,26.13
2022-08-25T18:16:53.805Z,26.24
2022-08-25T18:19:21.142Z,26.20
2022-08-25T18:21:48.249Z,26.15
2022-08-25T18:24:14.986Z,26.11
2022-08-25T18:26:42.394Z,26.06
2022-08-25T18:29:12.922Z,26.00
2022-08-25T18:31:42.333Z,25.85
2022-08-25T18:34:11.348Z,25.83
2022-08-25T18:36:38.814Z,25.74
2022-08-25T18:39:25.871Z,25.90
2022-08-25T18:41:52.608Z,25.69
2022-08-25T18:44:19.923Z,25.73
2022-08-25T18:46:47.032Z,25.26
2022-08-25T18:49:18.428Z,25.51
2022-08-25T18:51:48.109Z,25.57
2022-08-25T18:54:22.692Z,25.53
2022-08-25T18:56:50.461Z,25.31
2022-08-25T18:59:19.226Z,25.23
2022-08-25T19:01:46.562Z,25.41
2022-08-25T19:04:15.325Z,25.26
2022-08-25T19:06:43.932Z,25.36
2022-08-25T19:09:11.149Z,25.13
2022-08-25T19:11:38.398Z,25.23
2022-08-25T19:14:12.164Z,25.19
2022-08-25T19:16:42.546Z,24.90
2022-08-25T19:19:13.311Z,25.17
2022-08-25T19:21:43.016Z,25.00
2022-08-25T19:24:12.459Z,25.10
2022-08-25T19:26:39.892Z,25.20
2022-08-25T19:29:16.348Z,25.02
2022-08-25T19:31:45.902Z,25.01
2022-08-25T19:34:18.791Z,25.07
2022-08-25T19:36:47.399Z,24.76
2022-08-25T19:39:15.334Z,24.88
2022-08-25T19:41:43.963Z,24.97
2022-08-25T19:44:14.712Z,24.94
2022-08-25T19:46:44.424Z,24.95
2022-08-25T19:49:15.988Z,24.91
2022-08-25T19:51:50.640Z,24.67
2022-08-25T19:54:22.728Z,24.87
2022-08-25T19:56:54.885Z,24.75
2022-08-25T19:59:25.180Z,24.44
2022-08-25T20:01:52.145Z,24.68
2022-08-25T20:04:19.275Z,24.63
2022-08-25T20:06:48.390Z,24.49
2022-08-25T20:09:36.009Z,24.43
2022-08-25T20:12:04.192Z,24.46
2022-08-25T20:14:35.239Z,23.92
2022-08-25T20:17:03.516Z,24.39
2022-08-25T20:19:41.755Z,24.25
2022-08-25T20:22:11.280Z,24.34
2022-08-25T20:24:51.031Z,24.19
2022-08-25T20:27:26.433Z,23.72
2022-08-25T20:29:56.137Z,24.11
2022-08-25T20:32:24.660Z,24.24
2022-08-25T20:34:58.292Z,23.79
2022-08-25T20:37:26.975Z,24.11
2022-08-25T20:39:54.483Z,24.07
2022-08-25T20:42:21.417Z,24.00
2022-08-25T20:44:48.235Z,24.07
2022-08-25T20:47:15.585Z,23.96
2022-08-25T20:49:43.995Z,23.88
2022-08-25T20:52:12.072Z,24.02
2022-08-25T20:54:40.714Z,23.96
2022-08-25T20:57:08.119Z,23.82
2022-08-25T20:59:35.040Z,23.88
2022-08-25T21:02:02.261Z,23.80
2022-08-25T21:04:31.069Z,23.73
2022-08-25T21:07:00.388Z,23.83
2022-08-25T21:09:28.252Z,23.69
2022-08-25T21:11:57.250Z,23.71
2022-08-25T21:14:25.064Z,23.72
2022-08-25T21:16:54.148Z,23.80
2022-08-25T21:19:26.790Z,23.77
2022-08-25T21:21:59.893Z,23.52
2022-08-25T21:24:28.179Z,23.68
2022-08-25T21:26:56.489Z,23.68
2022-08-25T21:29:25.966Z,23.61
2022-08-25T21:31:56.492Z,23.53
2022-08-25T21:34:23.347Z,23.47
2022-08-25T21:36:50.133Z,23.33
2022-08-25T21:39:17.405Z,23.37
2022-08-25T21:41:45.753Z,23.42
2022-08-25T21:44:13.910Z,23.30
2022-08-25T21:46:41.574Z,23.24
2022-08-25T21:49:20.506Z,23.21
2022-08-25T21:51:47.268Z,23.15
2022-08-25T21:54:18.439Z,23.26
2022-08-25T21:56:58.525Z,23.31
2022-08-25T21:59:28.515Z,23.30
2022-08-25T22:02:02.043Z,23.21
2022-08-25T22:04:29.306Z,23.31
2022-08-25T22:06:58.362Z,23.20
2022-08-25T22:09:28.321Z,23.23
2022-08-25T22:11:55.731Z,23.24
2022-08-25T22:14:24.343Z,23.15
2022-08-25T22:16:54.027Z,23.13
2022-08-25T22:19:21.581Z,23.06
2022-08-25T22:21:50.955Z,23.08
2022-08-25T22:24:18.449Z,22.98
2022-08-25T22:26:47.696Z,23.03
2022-08-25T22:29:25.328Z,22.69
2022-08-25T22:31:59.444Z,22.81
2022-08-25T22:34:32.735Z,22.75
2022-08-25T22:37:01.307Z,22.77
2022-08-25T22:39:28.906Z,22.25
2022-08-25T22:41:55.873Z,22.57
2022-08-25T22:44:23.301Z,22.58
2022-08-25T22:46:50.316Z,22.55
2022-08-25T22:49:17.659Z,22.49
2022-08-25T22:51:44.426Z,22.32
2022-08-25T22:54:15.172Z,22.20
2022-08-25T22:56:42.776Z,22.26
2022-08-25T22:59:12.583Z,22.34
2022-08-25T23:01:40.212Z,22.25
2022-08-25T23:04:07.749Z,22.02
2022-08-25T23:06:35.004Z,22.16
2022-08-25T23:09:04.335Z,21.83
2022-08-25T23:11:31.111Z,21.94
2022-08-25T23:14:00.543Z,21.96
2022-08-25T23:16:28.497Z,21.84
2022-08-25T23:18:55.359Z,21.70
2022-08-25T23:21:40.905Z,21.73
2022-08-25T23:24:10.703Z,21.85
2022-08-25T23:26:37.852Z,21.84
2022-08-25T23:29:18.533Z,21.75
2022-08-25T23:31:47.923Z,21.67
2022-08-25T23:34:16.148Z,21.38
2022-08-25T23:36:43.532Z,21.57
2022-08-25T23:39:11.439Z,21.51
2022-08-25T23:41:38.957Z,21.51
2022-08-25T23:44:06.404Z,21.42
2022-08-25T23:46:36.350Z,21.27
2022-08-25T23:49:05.809Z,21.17
2022-08-25T23:51:37.205Z,21.24
2022-08-25T23:54:09.531Z,21.32
2022-08-25T23:56:44.514Z,21.17
2022-08-25T23:59:13.186Z,21.18
